sensor_id;sensor_type;location;lat;lon;timestamp;pressure;altitude;pressure_sealevel;temperature;humidity
41234;BME280;26968;42.686;23.352;2023-04-23T00:00:39;95205.78;;;12.16;59.67
41234;BME280;26968;42.686;23.352;2023-04-23T00:03:07;95090.94;;;11.37;60.09
41234;BME280;26968;42.686;23.352;2023-04-23T00:05:37;95207.47;;;12.07;60.19
41234;BME280;26968;42.686;23.352;2023-04-23T00:08:03;95148.88;;;11.64;60.11
41234;BME280;26968;42.686;23.352;2023-04-23T00:10:28;95207.00;;;11.99;60.56
41234;BME280;26968;42.686;23.352;2023-04-23T00:12:54;95145.69;;;11.62;60.43
41234;BME280;26968;42.686;23.352;2023-04-23T00:15:19;95206.25;;;11.94;60.41
41234;BME280;26968;42.686;23.352;2023-04-23T00:17:46;95190.41;;;11.84;60.44
41234;BME280;26968;42.686;23.352;2023-04-23T00:20:12;95207.16;;;11.84;60.92
41234;BME280;26968;42.686;23.352;2023-04-23T00:22:38;95209.84;;;11.79;61.14
41234;BME280;26968;42.686;23.352;2023-04-23T00:25:04;95159.72;;;11.39;61.16
41234;BME280;26968;42.686;23.352;2023-04-23T00:27:30;95179.81;;;11.50;61.23
41234;BME280;26968;42.686;23.352;2023-04-23T00:29:55;95135.13;;;11.28;60.90
41234;BME280;26968;42.686;23.352;2023-04-23T00:32:20;95183.25;;;11.50;60.82
41234;BME280;26968;42.686;23.352;2023-04-23T00:34:47;95216.59;;;11.67;61.18
41234;BME280;26968;42.686;23.352;2023-04-23T00:37:16;95167.78;;;11.23;61.50
41234;BME280;26968;42.686;23.352;2023-04-23T00:39:42;95209.44;;;11.62;61.43
41234;BME280;26968;42.686;23.352;2023-04-23T00:42:08;95186.94;;;11.54;61.17
41234;BME280;26968;42.686;23.352;2023-04-23T00:44:38;95207.84;;;11.66;60.95
41234;BME280;26968;42.686;23.352;2023-04-23T00:47:05;95172.97;;;11.44;60.94
41234;BME280;26968;42.686;23.352;2023-04-23T00:49:32;95172.91;;;11.49;60.71
41234;BME280;26968;42.686;23.352;2023-04-23T00:51:58;95183.47;;;11.54;61.11
41234;BME280;26968;42.686;23.352;2023-04-23T00:54:25;95180.59;;;11.50;60.65
41234;BME280;26968;42.686;23.352;2023-04-23T00:56:50;95172.47;;;11.37;60.76
41234;BME280;26968;42.686;23.352;2023-04-23T00:59:16;95196.59;;;11.40;61.09
41234;BME280;26968;42.686;23.352;2023-04-23T01:01:42;95181.81;;;11.29;60.82
41234;BME280;26968;42.686;23.352;2023-04-23T01:04:11;95175.84;;;11.13;61.89
41234;BME280;26968;42.686;23.352;2023-04-23T01:06:39;95181.88;;;11.24;61.09
41234;BME280;26968;42.686;23.352;2023-04-23T01:09:06;95194.47;;;11.42;60.79
41234;BME280;26968;42.686;23.352;2023-04-23T01:11:32;95138.97;;;11.07;60.82
41234;BME280;26968;42.686;23.352;2023-04-23T01:13:59;95184.97;;;11.36;61.07
41234;BME280;26968;42.686;23.352;2023-04-23T01:16:25;95170.44;;;11.23;60.93
41234;BME280;26968;42.686;23.352;2023-04-23T01:18:50;95213.06;;;11.42;61.03
41234;BME280;26968;42.686;23.352;2023-04-23T01:21:18;95210.41;;;11.42;61.14
41234;BME280;26968;42.686;23.352;2023-04-23T01:23:44;95213.56;;;11.44;60.97
41234;BME280;26968;42.686;23.352;2023-04-23T01:26:10;95149.34;;;11.08;60.90
41234;BME280;26968;42.686;23.352;2023-04-23T01:28:36;95179.41;;;11.33;60.77
41234;BME280;26968;42.686;23.352;2023-04-23T01:31:02;95198.41;;;11.45;60.29
41234;BME280;26968;42.686;23.352;2023-04-23T01:33:28;95168.13;;;11.17;60.82
41234;BME280;26968;42.686;23.352;2023-04-23T01:35:55;95213.34;;;11.41;60.91
41234;BME280;26968;42.686;23.352;2023-04-23T01:38:21;95212.28;;;11.37;61.31
41234;BME280;26968;42.686;23.352;2023-04-23T01:40:47;95199.47;;;11.10;61.84
41234;BME280;26968;42.686;23.352;2023-04-23T01:43:13;95150.28;;;10.89;60.99
41234;BME280;26968;42.686;23.352;2023-04-23T01:45:40;95214.84;;;11.18;60.57
41234;BME280;26968;42.686;23.352;2023-04-23T01:48:05;95150.28;;;10.89;60.91
41234;BME280;26968;42.686;23.352;2023-04-23T01:50:31;95167.25;;;10.43;62.80
41234;BME280;26968;42.686;23.352;2023-04-23T01:52:56;95141.81;;;10.37;62.40
41234;BME280;26968;42.686;23.352;2023-04-23T01:55:22;95223.69;;;11.03;61.77
41234;BME280;26968;42.686;23.352;2023-04-23T01:57:48;95157.06;;;10.61;62.39
41234;BME280;26968;42.686;23.352;2023-04-23T02:00:14;95231.13;;;11.01;62.66
41234;BME280;26968;42.686;23.352;2023-04-23T02:02:43;95193.31;;;10.80;62.10
41234;BME280;26968;42.686;23.352;2023-04-23T02:05:14;95231.06;;;11.11;62.20
41234;BME280;26968;42.686;23.352;2023-04-23T02:07:41;95124.81;;;10.43;62.03
41234;BME280;26968;42.686;23.352;2023-04-23T02:10:08;95141.75;;;10.48;62.27
41234;BME280;26968;42.686;23.352;2023-04-23T02:12:35;95206.25;;;10.87;62.27
41234;BME280;26968;42.686;23.352;2023-04-23T02:15:00;95170.53;;;10.69;61.91
41234;BME280;26968;42.686;23.352;2023-04-23T02:17:27;95227.19;;;10.94;62.57
41234;BME280;26968;42.686;23.352;2023-04-23T02:19:53;95149.22;;;10.40;62.62
41234;BME280;26968;42.686;23.352;2023-04-23T02:22:20;95205.84;;;10.65;62.23
41234;BME280;26968;42.686;23.352;2023-04-23T02:24:46;95225.41;;;10.79;62.50
41234;BME280;26968;42.686;23.352;2023-04-23T02:27:12;95236.34;;;10.67;62.65
41234;BME280;26968;42.686;23.352;2023-04-23T02:29:38;95123.13;;;9.98;62.14
41234;BME280;26968;42.686;23.352;2023-04-23T02:32:04;95188.16;;;10.50;62.61
41234;BME280;26968;42.686;23.352;2023-04-23T02:34:30;95190.53;;;10.52;62.07
41234;BME280;26968;42.686;23.352;2023-04-23T02:36:55;95159.13;;;10.20;62.33
41234;BME280;26968;42.686;23.352;2023-04-23T02:39:21;95184.50;;;10.31;63.02
41234;BME280;26968;42.686;23.352;2023-04-23T02:41:46;95211.47;;;10.48;62.83
41234;BME280;26968;42.686;23.352;2023-04-23T02:44:12;95198.81;;;10.35;62.41
41234;BME280;26968;42.686;23.352;2023-04-23T02:46:37;95234.50;;;10.63;63.20
41234;BME280;26968;42.686;23.352;2023-04-23T02:49:03;95183.72;;;10.35;62.25
41234;BME280;26968;42.686;23.352;2023-04-23T02:51:29;95151.94;;;10.15;62.65
41234;BME280;26968;42.686;23.352;2023-04-23T02:53:55;95229.97;;;10.63;62.84
41234;BME280;26968;42.686;23.352;2023-04-23T02:56:21;95216.22;;;10.56;62.14
41234;BME280;26968;42.686;23.352;2023-04-23T02:58:47;95235.03;;;10.65;62.69
41234;BME280;26968;42.686;23.352;2023-04-23T03:01:13;95182.09;;;10.39;62.84
41234;BME280;26968;42.686;23.352;2023-04-23T03:03:39;95239.00;;;10.62;61.90
41234;BME280;26968;42.686;23.352;2023-04-23T03:06:05;95210.72;;;10.42;62.70
41234;BME280;26968;42.686;23.352;2023-04-23T03:08:32;95225.25;;;10.55;62.90
41234;BME280;26968;42.686;23.352;2023-04-23T03:10:57;95163.88;;;10.13;62.89
41234;BME280;26968;42.686;23.352;2023-04-23T03:13:24;95200.69;;;10.29;62.45
41234;BME280;26968;42.686;23.352;2023-04-23T03:15:50;95236.63;;;10.61;62.23
41234;BME280;26968;42.686;23.352;2023-04-23T03:18:16;95241.69;;;10.57;62.94
41234;BME280;26968;42.686;23.352;2023-04-23T03:20:41;95182.16;;;10.14;62.78
41234;BME280;26968;42.686;23.352;2023-04-23T03:23:07;95207.88;;;10.19;62.78
41234;BME280;26968;42.686;23.352;2023-04-23T03:25:33;95245.69;;;10.50;62.11
41234;BME280;26968;42.686;23.352;2023-04-23T03:27:58;95190.38;;;10.13;62.63
41234;BME280;26968;42.686;23.352;2023-04-23T03:30:25;95252.06;;;10.38;62.56
41234;BME280;26968;42.686;23.352;2023-04-23T03:32:53;95248.63;;;10.38;62.70
41234;BME280;26968;42.686;23.352;2023-04-23T03:35:19;95219.78;;;10.11;62.34
41234;BME280;26968;42.686;23.352;2023-04-23T03:37:44;95196.28;;;9.89;63.08
41234;BME280;26968;42.686;23.352;2023-04-23T03:40:09;95255.03;;;10.27;63.17
41234;BME280;26968;42.686;23.352;2023-04-23T03:42:35;95241.50;;;10.23;63.13
41234;BME280;26968;42.686;23.352;2023-04-23T03:45:01;95235.72;;;10.21;63.40
41234;BME280;26968;42.686;23.352;2023-04-23T03:47:26;95258.47;;;10.32;63.17
41234;BME280;26968;42.686;23.352;2023-04-23T03:49:52;95256.38;;;10.29;63.90
41234;BME280;26968;42.686;23.352;2023-04-23T03:52:18;95222.44;;;10.11;63.48
41234;BME280;26968;42.686;23.352;2023-04-23T03:54:43;95146.81;;;9.59;63.36
41234;BME280;26968;42.686;23.352;2023-04-23T03:57:09;95256.13;;;10.21;63.77
41234;BME280;26968;42.686;23.352;2023-04-23T03:59:36;95235.44;;;10.07;63.39
41234;BME280;26968;42.686;23.352;2023-04-23T04:02:02;95252.63;;;10.15;63.58
41234;BME280;26968;42.686;23.352;2023-04-23T04:04:28;95273.06;;;10.25;63.93
41234;BME280;26968;42.686;23.352;2023-04-23T04:06:54;95231.75;;;10.03;63.35
41234;BME280;26968;42.686;23.352;2023-04-23T04:09:20;95265.09;;;10.25;63.77
41234;BME280;26968;42.686;23.352;2023-04-23T04:11:46;95269.63;;;10.24;63.82
41234;BME280;26968;42.686;23.352;2023-04-23T04:14:12;95273.84;;;10.30;63.38
41234;BME280;26968;42.686;23.352;2023-04-23T04:16:37;95228.31;;;9.88;63.77
41234;BME280;26968;42.686;23.352;2023-04-23T04:19:03;95222.22;;;9.87;63.86
41234;BME280;26968;42.686;23.352;2023-04-23T04:21:28;95268.53;;;10.15;63.58
41234;BME280;26968;42.686;23.352;2023-04-23T04:23:54;95274.91;;;10.24;63.49
41234;BME280;26968;42.686;23.352;2023-04-23T04:26:20;95282.34;;;10.27;63.24
41234;BME280;26968;42.686;23.352;2023-04-23T04:28:45;95256.38;;;10.14;63.39
41234;BME280;26968;42.686;23.352;2023-04-23T04:31:12;95276.25;;;10.27;62.67
41234;BME280;26968;42.686;23.352;2023-04-23T04:33:40;95235.72;;;9.96;63.65
41234;BME280;26968;42.686;23.352;2023-04-23T04:36:06;95274.38;;;10.27;63.67
41234;BME280;26968;42.686;23.352;2023-04-23T04:38:34;95234.13;;;10.00;63.27
41234;BME280;26968;42.686;23.352;2023-04-23T04:41:02;95281.81;;;10.25;63.87
41234;BME280;26968;42.686;23.352;2023-04-23T04:43:28;95268.03;;;10.23;63.47
41234;BME280;26968;42.686;23.352;2023-04-23T04:45:53;95284.97;;;10.32;63.54
41234;BME280;26968;42.686;23.352;2023-04-23T04:48:19;95266.97;;;10.29;63.15
41234;BME280;26968;42.686;23.352;2023-04-23T04:50:44;95264.06;;;10.21;63.33
41234;BME280;26968;42.686;23.352;2023-04-23T04:53:11;95274.09;;;10.39;62.58
41234;BME280;26968;42.686;23.352;2023-04-23T04:55:36;95292.88;;;10.48;62.80
41234;BME280;26968;42.686;23.352;2023-04-23T04:58:02;95300.84;;;10.53;62.84
41234;BME280;26968;42.686;23.352;2023-04-23T05:00:28;95288.34;;;10.53;61.88
41234;BME280;26968;42.686;23.352;2023-04-23T05:02:56;95288.88;;;10.55;62.02
41234;BME280;26968;42.686;23.352;2023-04-23T05:05:23;95301.06;;;10.61;62.27
41234;BME280;26968;42.686;23.352;2023-04-23T05:07:49;95296.25;;;10.68;62.26
41234;BME280;26968;42.686;23.352;2023-04-23T05:10:14;95187.78;;;9.97;62.17
41234;BME280;26968;42.686;23.352;2023-04-23T05:12:41;95308.47;;;10.74;62.28
41234;BME280;26968;42.686;23.352;2023-04-23T05:15:11;95280.13;;;10.60;62.01
41234;BME280;26968;42.686;23.352;2023-04-23T05:17:41;95304.75;;;10.75;61.96
41234;BME280;26968;42.686;23.352;2023-04-23T05:20:07;95248.38;;;10.44;61.96
41234;BME280;26968;42.686;23.352;2023-04-23T05:22:37;95298.09;;;10.83;61.93
41234;BME280;26968;42.686;23.352;2023-04-23T05:25:04;95291.69;;;10.89;61.82
41234;BME280;26968;42.686;23.352;2023-04-23T05:27:30;95244.38;;;10.47;62.44
41234;BME280;26968;42.686;23.352;2023-04-23T05:29:55;95271.81;;;10.76;62.09
41234;BME280;26968;42.686;23.352;2023-04-23T05:32:21;95267.06;;;10.78;62.61
41234;BME280;26968;42.686;23.352;2023-04-23T05:34:46;95283.19;;;10.87;62.35
41234;BME280;26968;42.686;23.352;2023-04-23T05:37:12;95270.22;;;10.80;62.23
41234;BME280;26968;42.686;23.352;2023-04-23T05:39:37;95313.56;;;11.15;62.15
41234;BME280;26968;42.686;23.352;2023-04-23T05:42:03;95268.84;;;10.93;61.78
41234;BME280;26968;42.686;23.352;2023-04-23T05:44:29;95238.41;;;10.80;62.20
41234;BME280;26968;42.686;23.352;2023-04-23T05:46:54;95302.22;;;11.04;62.51
41234;BME280;26968;42.686;23.352;2023-04-23T05:49:20;95311.44;;;11.17;62.10
41234;BME280;26968;42.686;23.352;2023-04-23T05:51:45;95286.84;;;11.01;61.87
41234;BME280;26968;42.686;23.352;2023-04-23T05:54:11;95306.94;;;11.17;62.46
41234;BME280;26968;42.686;23.352;2023-04-23T05:56:36;95313.56;;;11.20;62.11
41234;BME280;26968;42.686;23.352;2023-04-23T05:59:01;95309.84;;;11.21;61.77
41234;BME280;26968;42.686;23.352;2023-04-23T06:01:27;95315.63;;;11.33;61.29
41234;BME280;26968;42.686;23.352;2023-04-23T06:03:53;95315.94;;;11.21;61.83
41234;BME280;26968;42.686;23.352;2023-04-23T06:06:18;95313.22;;;11.32;61.63
41234;BME280;26968;42.686;23.352;2023-04-23T06:08:44;95278.31;;;11.09;61.54
41234;BME280;26968;42.686;23.352;2023-04-23T06:11:10;95283.63;;;11.09;62.27
41234;BME280;26968;42.686;23.352;2023-04-23T06:13:35;95250.31;;;10.88;62.95
41234;BME280;26968;42.686;23.352;2023-04-23T06:16:06;95311.94;;;11.24;63.49
41234;BME280;26968;42.686;23.352;2023-04-23T06:18:32;95229.03;;;10.93;63.02
41234;BME280;26968;42.686;23.352;2023-04-23T06:20:57;95308.66;;;11.42;63.26
41234;BME280;26968;42.686;23.352;2023-04-23T06:23:25;95305.91;;;11.52;62.75
41234;BME280;26968;42.686;23.352;2023-04-23T06:25:51;95287.16;;;11.44;62.83
41234;BME280;26968;42.686;23.352;2023-04-23T06:28:16;95270.53;;;11.23;63.03
41234;BME280;26968;42.686;23.352;2023-04-23T06:30:42;95262.50;;;11.33;62.18
41234;BME280;26968;42.686;23.352;2023-04-23T06:33:07;95284.69;;;11.52;62.50
41234;BME280;26968;42.686;23.352;2023-04-23T06:35:33;95307.78;;;11.57;62.73
41234;BME280;26968;42.686;23.352;2023-04-23T06:37:58;95283.13;;;11.51;62.01
41234;BME280;26968;42.686;23.352;2023-04-23T06:40:24;95268.16;;;11.60;62.23
41234;BME280;26968;42.686;23.352;2023-04-23T06:42:49;95273.91;;;11.73;62.21
41234;BME280;26968;42.686;23.352;2023-04-23T06:45:15;95285.84;;;11.80;62.62
41234;BME280;26968;42.686;23.352;2023-04-23T06:47:40;95288.97;;;11.87;62.75
41234;BME280;26968;42.686;23.352;2023-04-23T06:50:07;95301.94;;;11.94;63.09
41234;BME280;26968;42.686;23.352;2023-04-23T06:52:32;95275.41;;;11.89;62.52
41234;BME280;26968;42.686;23.352;2023-04-23T06:54:58;95288.00;;;12.07;62.19
41234;BME280;26968;42.686;23.352;2023-04-23T06:57:24;95293.19;;;12.22;62.29
41234;BME280;26968;42.686;23.352;2023-04-23T06:59:50;95290.56;;;12.17;62.48
41234;BME280;26968;42.686;23.352;2023-04-23T07:02:15;95302.53;;;12.20;62.42
41234;BME280;26968;42.686;23.352;2023-04-23T07:04:40;95292.28;;;12.32;62.30
41234;BME280;26968;42.686;23.352;2023-04-23T07:07:06;95266.06;;;11.96;63.09
41234;BME280;26968;42.686;23.352;2023-04-23T07:09:31;95276.22;;;12.18;62.70
41234;BME280;26968;42.686;23.352;2023-04-23T07:11:57;95251.84;;;12.06;62.39
41234;BME280;26968;42.686;23.352;2023-04-23T07:14:22;95279.00;;;12.32;62.52
41234;BME280;26968;42.686;23.352;2023-04-23T07:16:48;95274.38;;;12.43;61.91
41234;BME280;26968;42.686;23.352;2023-04-23T07:19:14;95255.00;;;12.37;61.63
41234;BME280;26968;42.686;23.352;2023-04-23T07:21:39;95276.91;;;12.53;61.71
41234;BME280;26968;42.686;23.352;2023-04-23T07:24:05;95260.13;;;12.28;62.39
41234;BME280;26968;42.686;23.352;2023-04-23T07:26:34;95297.13;;;12.54;62.01
41234;BME280;26968;42.686;23.352;2023-04-23T07:29:00;95289.38;;;12.57;62.15
41234;BME280;26968;42.686;23.352;2023-04-23T07:31:26;95273.19;;;12.54;61.62
41234;BME280;26968;42.686;23.352;2023-04-23T07:33:53;95266.41;;;12.43;62.11
41234;BME280;26968;42.686;23.352;2023-04-23T07:36:20;95237.25;;;12.32;62.44
41234;BME280;26968;42.686;23.352;2023-04-23T07:38:45;95288.44;;;12.67;61.81
41234;BME280;26968;42.686;23.352;2023-04-23T07:41:11;95279.81;;;12.80;61.53
41234;BME280;26968;42.686;23.352;2023-04-23T07:43:37;95238.25;;;12.60;61.29
41234;BME280;26968;42.686;23.352;2023-04-23T07:46:03;95272.09;;;12.79;60.44
41234;BME280;26968;42.686;23.352;2023-04-23T07:48:29;95143.50;;;11.98;60.64
41234;BME280;26968;42.686;23.352;2023-04-23T07:50:55;95287.25;;;13.02;60.51
41234;BME280;26968;42.686;23.352;2023-04-23T07:53:21;95216.84;;;12.70;60.37
41234;BME280;26968;42.686;23.352;2023-04-23T07:55:46;95239.41;;;12.97;59.96
41234;BME280;26968;42.686;23.352;2023-04-23T07:58:12;95260.97;;;13.19;59.81
41234;BME280;26968;42.686;23.352;2023-04-23T08:00:37;95257.06;;;13.30;59.28
41234;BME280;26968;42.686;23.352;2023-04-23T08:03:03;95268.16;;;13.56;59.63
41234;BME280;26968;42.686;23.352;2023-04-23T08:05:28;95240.88;;;13.45;60.10
41234;BME280;26968;42.686;23.352;2023-04-23T08:07:54;95260.84;;;13.80;59.87
41234;BME280;26968;42.686;23.352;2023-04-23T08:10:19;95271.16;;;13.87;57.50
41234;BME280;26968;42.686;23.352;2023-04-23T08:12:45;95243.81;;;13.63;57.28
41234;BME280;26968;42.686;23.352;2023-04-23T08:15:10;95285.59;;;14.00;58.26
41234;BME280;26968;42.686;23.352;2023-04-23T08:17:36;95145.34;;;13.20;57.47
41234;BME280;26968;42.686;23.352;2023-04-23T08:20:03;95197.06;;;13.51;56.24
41234;BME280;26968;42.686;23.352;2023-04-23T08:22:31;95273.22;;;13.90;57.41
41234;BME280;26968;42.686;23.352;2023-04-23T08:24:56;95193.41;;;13.47;57.26
41234;BME280;26968;42.686;23.352;2023-04-23T08:27:21;95273.69;;;14.11;57.53
41234;BME280;26968;42.686;23.352;2023-04-23T08:29:47;95272.09;;;14.10;57.96
41234;BME280;26968;42.686;23.352;2023-04-23T08:32:12;95216.47;;;13.57;56.82
41234;BME280;26968;42.686;23.352;2023-04-23T08:34:38;95270.31;;;14.19;56.39
41234;BME280;26968;42.686;23.352;2023-04-23T08:37:03;95236.94;;;14.21;55.31
41234;BME280;26968;42.686;23.352;2023-04-23T08:39:29;95255.19;;;14.47;56.88
41234;BME280;26968;42.686;23.352;2023-04-23T08:42:01;95215.31;;;14.09;57.11
41234;BME280;26968;42.686;23.352;2023-04-23T08:44:30;95246.66;;;14.31;56.96
41234;BME280;26968;42.686;23.352;2023-04-23T08:46:56;95236.81;;;14.13;56.70
41234;BME280;26968;42.686;23.352;2023-04-23T08:49:22;95256.41;;;14.36;58.69
41234;BME280;26968;42.686;23.352;2023-04-23T08:51:51;95254.50;;;14.55;57.90
41234;BME280;26968;42.686;23.352;2023-04-23T08:54:27;95220.59;;;14.42;55.86
41234;BME280;26968;42.686;23.352;2023-04-23T08:56:56;95255.97;;;14.75;55.49
41234;BME280;26968;42.686;23.352;2023-04-23T08:59:26;95237.00;;;14.76;54.63
41234;BME280;26968;42.686;23.352;2023-04-23T09:01:54;95202.81;;;14.64;54.47
41234;BME280;26968;42.686;23.352;2023-04-23T09:04:20;95225.78;;;14.88;54.59
41234;BME280;26968;42.686;23.352;2023-04-23T09:06:46;95252.69;;;15.05;53.24
41234;BME280;26968;42.686;23.352;2023-04-23T09:09:14;95246.13;;;15.11;53.58
41234;BME280;26968;42.686;23.352;2023-04-23T09:11:40;95229.72;;;15.04;53.14
41234;BME280;26968;42.686;23.352;2023-04-23T09:14:06;95187.28;;;14.66;54.32
41234;BME280;26968;42.686;23.352;2023-04-23T09:16:32;95193.19;;;14.77;55.74
41234;BME280;26968;42.686;23.352;2023-04-23T09:18:58;95219.75;;;15.10;53.70
41234;BME280;26968;42.686;23.352;2023-04-23T09:21:23;95232.88;;;15.20;52.02
41234;BME280;26968;42.686;23.352;2023-04-23T09:23:51;95190.75;;;15.03;51.20
41234;BME280;26968;42.686;23.352;2023-04-23T09:26:21;95227.13;;;15.49;52.08
41234;BME280;26968;42.686;23.352;2023-04-23T09:28:49;95203.50;;;15.42;54.05
41234;BME280;26968;42.686;23.352;2023-04-23T09:31:20;95231.13;;;15.73;51.87
41234;BME280;26968;42.686;23.352;2023-04-23T09:33:52;95211.69;;;15.59;49.10
41234;BME280;26968;42.686;23.352;2023-04-23T09:36:22;95197.09;;;15.65;51.99
41234;BME280;26968;42.686;23.352;2023-04-23T09:38:49;95221.16;;;15.88;51.15
41234;BME280;26968;42.686;23.352;2023-04-23T09:41:25;95205.16;;;15.52;48.35
41234;BME280;26968;42.686;23.352;2023-04-23T09:43:54;95192.84;;;15.06;49.54
41234;BME280;26968;42.686;23.352;2023-04-23T09:46:40;95213.22;;;15.38;49.90
41234;BME280;26968;42.686;23.352;2023-04-23T09:49:07;95171.84;;;15.35;49.41
41234;BME280;26968;42.686;23.352;2023-04-23T09:51:41;95172.84;;;16.15;49.81
41234;BME280;26968;42.686;23.352;2023-04-23T09:56:41;95169.03;;;18.28;43.31
41234;BME280;26968;42.686;23.352;2023-04-23T09:59:27;95183.75;;;19.93;41.96
41234;BME280;26968;42.686;23.352;2023-04-23T10:01:53;95134.69;;;20.69;37.67
41234;BME280;26968;42.686;23.352;2023-04-23T10:04:20;95189.00;;;21.72;35.82
41234;BME280;26968;42.686;23.352;2023-04-23T10:07:03;95144.34;;;22.65;33.99
41234;BME280;26968;42.686;23.352;2023-04-23T10:09:30;95152.63;;;22.88;32.52
41234;BME280;26968;42.686;23.352;2023-04-23T10:11:57;95174.09;;;23.89;33.10
41234;BME280;26968;42.686;23.352;2023-04-23T10:14:25;95172.72;;;24.18;30.99
41234;BME280;26968;42.686;23.352;2023-04-23T10:16:56;95165.66;;;24.55;29.29
41234;BME280;26968;42.686;23.352;2023-04-23T10:19:23;95142.81;;;24.83;29.51
41234;BME280;26968;42.686;23.352;2023-04-23T10:22:01;95157.94;;;25.63;30.04
41234;BME280;26968;42.686;23.352;2023-04-23T10:24:35;95151.13;;;25.80;28.52
41234;BME280;26968;42.686;23.352;2023-04-23T10:27:03;95125.06;;;26.08;27.26
41234;BME280;26968;42.686;23.352;2023-04-23T10:29:31;95149.56;;;26.52;26.21
41234;BME280;26968;42.686;23.352;2023-04-23T10:31:59;95140.91;;;26.40;26.17
41234;BME280;26968;42.686;23.352;2023-04-23T10:34:28;95131.19;;;26.02;25.92
41234;BME280;26968;42.686;23.352;2023-04-23T10:36:58;95148.31;;;26.06;25.00
41234;BME280;26968;42.686;23.352;2023-04-23T10:39:30;95070.91;;;25.89;24.59
41234;BME280;26968;42.686;23.352;2023-04-23T10:41:57;95135.03;;;25.97;23.95
41234;BME280;26968;42.686;23.352;2023-04-23T10:44:31;95136.25;;;26.03;23.92
41234;BME280;26968;42.686;23.352;2023-04-23T10:46:57;95075.91;;;25.84;24.19
41234;BME280;26968;42.686;23.352;2023-04-23T10:49:25;95102.06;;;25.99;24.81
41234;BME280;26968;42.686;23.352;2023-04-23T10:52:11;95108.66;;;26.38;26.25
41234;BME280;26968;42.686;23.352;2023-04-23T10:54:43;95102.78;;;26.33;25.82
41234;BME280;26968;42.686;23.352;2023-04-23T10:57:11;95087.66;;;26.35;25.66
41234;BME280;26968;42.686;23.352;2023-04-23T10:59:50;95109.94;;;26.51;23.57
41234;BME280;26968;42.686;23.352;2023-04-23T11:02:17;95101.63;;;26.34;22.88
41234;BME280;26968;42.686;23.352;2023-04-23T11:04:57;95102.75;;;25.55;23.95
41234;BME280;26968;42.686;23.352;2023-04-23T11:07:31;95104.50;;;25.74;24.62
41234;BME280;26968;42.686;23.352;2023-04-23T11:10:11;95098.81;;;25.86;24.67
41234;BME280;26968;42.686;23.352;2023-04-23T11:12:38;95099.28;;;25.58;24.56
41234;BME280;26968;42.686;23.352;2023-04-23T11:15:12;95064.25;;;25.83;25.28
41234;BME280;26968;42.686;23.352;2023-04-23T11:20:03;95078.09;;;26.11;23.57
41234;BME280;26968;42.686;23.352;2023-04-23T11:22:44;95075.38;;;26.56;23.66
41234;BME280;26968;42.686;23.352;2023-04-23T11:25:12;95078.56;;;26.65;23.80
41234;BME280;26968;42.686;23.352;2023-04-23T11:27:40;95047.06;;;26.60;22.37
41234;BME280;26968;42.686;23.352;2023-04-23T11:30:20;95052.41;;;27.04;23.01
41234;BME280;26968;42.686;23.352;2023-04-23T11:32:49;95028.69;;;27.05;21.78
41234;BME280;26968;42.686;23.352;2023-04-23T11:35:16;95078.94;;;27.25;23.34
41234;BME280;26968;42.686;23.352;2023-04-23T11:37:43;95055.13;;;26.49;21.65
41234;BME280;26968;42.686;23.352;2023-04-23T11:40:13;95066.19;;;26.78;22.11
41234;BME280;26968;42.686;23.352;2023-04-23T11:42:44;95060.91;;;26.41;22.12
41234;BME280;26968;42.686;23.352;2023-04-23T11:45:21;95068.78;;;26.53;22.95
41234;BME280;26968;42.686;23.352;2023-04-23T11:47:48;95048.59;;;26.58;22.96
41234;BME280;26968;42.686;23.352;2023-04-23T11:50:23;95044.88;;;26.83;21.21
41234;BME280;26968;42.686;23.352;2023-04-23T11:52:49;95050.94;;;27.32;21.32
41234;BME280;26968;42.686;23.352;2023-04-23T11:55:15;95046.28;;;27.32;20.00
41234;BME280;26968;42.686;23.352;2023-04-23T11:57:46;95028.41;;;27.31;19.86
41234;BME280;26968;42.686;23.352;2023-04-23T12:00:20;95052.25;;;27.70;20.41
41234;BME280;26968;42.686;23.352;2023-04-23T12:05:21;95046.88;;;27.98;20.99
41234;BME280;26968;42.686;23.352;2023-04-23T12:07:50;95037.19;;;28.25;19.80
41234;BME280;26968;42.686;23.352;2023-04-23T12:10:20;95037.13;;;28.00;20.04
41234;BME280;26968;42.686;23.352;2023-04-23T12:12:51;95004.84;;;28.17;20.27
41234;BME280;26968;42.686;23.352;2023-04-23T12:15:17;95022.00;;;28.21;21.12
41234;BME280;26968;42.686;23.352;2023-04-23T12:17:50;95020.41;;;28.30;18.86
41234;BME280;26968;42.686;23.352;2023-04-23T12:20:20;95037.13;;;27.86;18.72
41234;BME280;26968;42.686;23.352;2023-04-23T12:22:46;95033.31;;;28.30;19.05
41234;BME280;26968;42.686;23.352;2023-04-23T12:25:12;94941.28;;;27.31;21.51
41234;BME280;26968;42.686;23.352;2023-04-23T12:27:43;94982.81;;;27.10;22.30
41234;BME280;26968;42.686;23.352;2023-04-23T12:30:09;95022.63;;;27.50;20.29
41234;BME280;26968;42.686;23.352;2023-04-23T12:32:36;95022.88;;;27.13;20.27
41234;BME280;26968;42.686;23.352;2023-04-23T12:35:02;95004.91;;;26.95;20.85
41234;BME280;26968;42.686;23.352;2023-04-23T12:37:36;95011.59;;;27.08;20.93
41234;BME280;26968;42.686;23.352;2023-04-23T12:40:02;94989.41;;;27.09;21.84
41234;BME280;26968;42.686;23.352;2023-04-23T12:42:31;95005.47;;;27.39;22.54
41234;BME280;26968;42.686;23.352;2023-04-23T12:45:04;95007.88;;;26.68;22.35
41234;BME280;26968;42.686;23.352;2023-04-23T12:47:31;94980.19;;;26.52;22.25
41234;BME280;26968;42.686;23.352;2023-04-23T12:49:56;94959.47;;;25.82;20.86
41234;BME280;26968;42.686;23.352;2023-04-23T12:52:22;94985.06;;;25.81;21.31
41234;BME280;26968;42.686;23.352;2023-04-23T12:54:47;95011.16;;;25.56;22.57
41234;BME280;26968;42.686;23.352;2023-04-23T12:57:16;94988.16;;;25.06;23.92